Time;durP1;ratioP1;P1;durP2;ratioP2;P2;SDS_P1;SDS_P2;PMS_P1;PMS_P2;Temp;Humidity;BMP_temperature;BMP_pressure;BME280_temperature;BME280_humidity;BME280_pressure;Samples;Min_cycle;Max_cycle;Signal;HPM_P1;HPM_P2
2021/12/10 00:00:12;;;;;;;;;;;;;;;;;;5151334;27;19987;-60
2021/12/10 00:02:45;;;;;;;;;;;;;;;;;;5166031;27;19919;-60
2021/12/10 00:05:11;;;;;;;;;;;;;;;;;;5148361;27;19919;-60
2021/12/10 00:07:37;;;;;;;;;;;;;;;;;;5148254;27;19941;-60
2021/12/10 00:10:03;;;;;;;;;;;;;;;;;;5148219;27;19966;-60
2021/12/10 00:12:29;;;;;;;;;;;;;;;;;;5149112;27;19941;-60
2021/12/10 00:14:55;;;;;;;;;;;;;;;;;;5168328;27;19923;-60
2021/12/10 00:17:22;;;;;;;;;;;;;;;;;;5169609;27;19919;-60
2021/12/10 00:19:50;;;;;;;;;;;;;;;;;;5168831;27;20404;-60
2021/12/10 00:22:16;;;;;;;;;;;;;;;;;;5150035;27;19919;-60
2021/12/10 00:24:42;;;;;;;;;;;;;;;;;;5164414;27;19940;-60
2021/12/10 00:27:09;;;;;;;;;;;;;;;;;;5158288;27;19982;-59
2021/12/10 00:29:35;;;;;;;;;;;;;;;;;;5169207;27;19930;-60
2021/12/10 00:32:03;;;;;;;;;;;;;;;;;;5150533;27;19968;-60
2021/12/10 00:34:29;;;;;;;;;;;;;;;;;;5169281;27;19919;-60
2021/12/10 00:36:55;;;;;;;;;;;;;;;;;;5155134;27;19962;-60
2021/12/10 00:39:21;;;;;;;;;;;;;;;;;;5148593;27;19919;-61
2021/12/10 00:41:47;;;;;;;;;;;;;;;;;;5148389;27;19945;-59
2021/12/10 00:44:13;;;;;;;;;;;;;;;;;;5147964;27;20120;-61
2021/12/10 00:46:39;;;;;;;;;;;;;;;;;;5157920;27;20134;-60
2021/12/10 00:49:05;;;;;;;;;;;;;;;;;;5168838;27;20103;-60
2021/12/10 00:51:31;;;;;;;;;;;;;;;;;;5167752;27;19914;-59
2021/12/10 00:53:57;;;;;;;;;;;;;;;;;;5150549;27;19919;-59
2021/12/10 00:56:23;;;;;;;;;;;;;;;;;;5141891;27;19930;-60
2021/12/10 00:58:49;;;;;;;;;;;;;;;;;;5147800;27;20326;-60
2021/12/10 01:01:15;;;;;;;;;;;;;;;;;;5147864;27;19919;-60
2021/12/10 01:03:41;;;;;;;;;;;;;;;;;;5147847;27;20116;-60
2021/12/10 01:06:07;;;;;;;;;;;;;;;;;;5151861;27;19919;-60
2021/12/10 01:08:33;;;;;;;;;;;;;;;;;;5168939;27;19930;-59
2021/12/10 01:10:59;;;;;;;;;;;;;;;;;;5168436;27;19919;-60
2021/12/10 01:13:30;;;;;;;;;;;;;;;;;;5164051;27;19920;-60
2021/12/10 01:23:57;;;;;;;;;;;;;;;;;;5147441;27;19926;-60
2021/12/10 01:26:37;;;;;;;;;;;;;;;;;;5167681;27;19926;-60
2021/12/10 01:29:03;;;;;;;;;;;;;;;;;;5168172;27;19923;-60
2021/12/10 01:31:29;;;;;;;;;;;;;;;;;;5141128;27;19923;-59
2021/12/10 01:33:55;;;;;;;;;;;;;;;;;;5147153;27;19919;-60
2021/12/10 01:36:22;;;;;;;;;;;;;;;;;;5146599;27;19983;-60
2021/12/10 01:38:50;;;;;;;;;;;;;;;;;;5147100;27;19923;-60
2021/12/10 01:41:18;;;;;;;;;;;;;;;;;;5151455;27;19926;-60
2021/12/10 01:43:44;;;;;;;;;;;;;;;;;;5167711;27;19920;-60
2021/12/10 01:46:11;;;;;;;;;;;;;;;;;;5167507;27;19926;-59
2021/12/10 01:48:37;;;;;;;;;;;;;;;;;;5167905;27;19919;-60
2021/12/10 01:51:03;;;;;;;;;;;;;;;;;;5163930;27;19927;-59
2021/12/10 01:53:29;;;;;;;;;;;;;;;;;;5146889;27;19919;-61
2021/12/10 01:55:55;;;;;;;;;;;;;;;;;;5146673;27;19919;-60
2021/12/10 01:58:21;;;;;;;;;;;;;;;;;;5129375;27;19948;-59
2021/12/10 02:00:47;;;;;;;;;;;;;;;;;;5146528;27;19919;-60
2021/12/10 02:03:13;;;;;;;;;;;;;;;;;;5150428;27;19930;-59
2021/12/10 02:05:39;;;;;;;;;;;;;;;;;;5166903;27;19971;-59
2021/12/10 02:08:05;;;;;;;;;;;;;;;;;;5133976;27;19998;-59
2021/12/10 02:10:31;;;;;;;;;;;;;;;;;;5146340;27;20363;-59
2021/12/10 02:12:57;;;;;;;;;;;;;;;;;;5146424;27;19994;-60
2021/12/10 02:15:26;;;;;;;;;;;;;;;;;;5146471;27;19990;-59
2021/12/10 02:17:52;;;;;;;;;;;;;;;;;;5161908;27;19930;-60
2021/12/10 02:20:18;;;;;;;;;;;;;;;;;;5159152;27;19923;-59
2021/12/10 02:22:44;;;;;;;;;;;;;;;;;;5146419;27;20386;-60
2021/12/10 02:25:10;;;;;;;;;;;;;;;;;;5146340;27;20351;-60
2021/12/10 02:27:36;;;;;;;;;;;;;;;;;;5159195;27;19919;-60
2021/12/10 02:30:02;;;;;;;;;;;;;;;;;;5142821;27;19923;-60
2021/12/10 02:32:28;;;;;;;;;;;;;;;;;;5146413;27;19919;-60
2021/12/10 02:34:55;;;;;;;;;;;;;;;;;;5146554;27;19923;-60
2021/12/10 02:37:21;;;;;;;;;;;;;;;;;;5156113;27;19919;-60
2021/12/10 02:39:47;;;;;;;;;;;;;;;;;;5166938;27;19945;-60
2021/12/10 02:42:12;;;;;;;;;;;;;;;;;;5166606;27;19923;-60
2021/12/10 02:44:38;;;;;;;;;;;;;;;;;;5167065;27;19944;-60
2021/12/10 02:47:04;;;;;;;;;;;;;;;;;;5166374;27;19919;-59
2021/12/10 02:49:30;;;;;;;;;;;;;;;;;;5154053;27;19919;-59
2021/12/10 02:51:56;;;;;;;;;;;;;;;;;;5162144;27;20397;-60
2021/12/10 02:54:32;;;;;;;;;;;;;;;;;;5163562;27;19927;-60
2021/12/10 02:56:58;;;;;;;;;;;;;;;;;;5145923;28;19919;-59
2021/12/10 02:59:24;;;;;;;;;;;;;;;;;;5146060;28;19940;-60
2021/12/10 03:01:50;;;;;;;;;;;;;;;;;;5146614;27;19919;-60
2021/12/10 03:04:16;;;;;;;;;;;;;;;;;;5146160;28;19942;-60
2021/12/10 03:06:44;;;;;;;;;;;;;;;;;;5144934;28;19923;-59
2021/12/10 03:09:10;;;;;;;;;;;;;;;;;;5127404;28;19919;-60
2021/12/10 03:11:36;;;;;;;;;;;;;;;;;;5126837;28;19976;-60
2021/12/10 03:14:06;;;;;;;;;;;;;;;;;;5146979;27;19920;-60
2021/12/10 03:16:32;;;;;;;;;;;;;;;;;;5145761;28;19983;-60
2021/12/10 03:18:58;;;;;;;;;;;;;;;;;;5146122;28;19919;-60
2021/12/10 03:21:24;;;;;;;;;;;;;;;;;;5144823;28;19919;-59
2021/12/10 03:23:50;;;;;;;;;;;;;;;;;;5145695;28;19926;-59
2021/12/10 03:26:16;;;;;;;;;;;;;;;;;;5145386;27;19923;-60
2021/12/10 03:28:42;;;;;;;;;;;;;;;;;;5158818;27;19944;-60
2021/12/10 03:31:08;;;;;;;;;;;;;;;;;;5145886;28;19920;-60
2021/12/10 03:33:33;;;;;;;;;;;;;;;;;;5145715;28;19926;-60
2021/12/10 03:35:59;;;;;;;;;;;;;;;;;;5145116;28;19920;-60
2021/12/10 03:38:25;;;;;;;;;;;;;;;;;;5145414;28;20324;-60
2021/12/10 03:40:52;;;;;;;;;;;;;;;;;;5145408;28;19915;-60
2021/12/10 03:43:17;;;;;;;;;;;;;;;;;;5147621;27;19919;-59
2021/12/10 03:45:43;;;;;;;;;;;;;;;;;;5145716;28;19919;-60
2021/12/10 03:48:09;;;;;;;;;;;;;;;;;;5145274;28;19920;-59
2021/12/10 03:50:36;;;;;;;;;;;;;;;;;;5144933;28;19974;-60
2021/12/10 03:53:02;;;;;;;;;;;;;;;;;;5145309;27;19919;-60
2021/12/10 03:55:27;;;;;;;;;;;;;;;;;;5148665;27;19926;-60
2021/12/10 03:57:53;;;;;;;;;;;;;;;;;;5150611;27;20010;-60
2021/12/10 04:00:19;;;;;;;;;;;;;;;;;;5148846;27;20354;-59
2021/12/10 04:02:45;;;;;;;;;;;;;;;;;;5162651;27;19919;-59
2021/12/10 04:05:11;;;;;;;;;;;;;;;;;;5169091;27;20019;-60
2021/12/10 04:07:37;;;;;;;;;;;;;;;;;;5169458;27;19940;-60
2021/12/10 04:10:03;;;;;;;;;;;;;;;;;;5167390;27;19923;-60
2021/12/10 04:12:29;;;;;;;;;;;;;;;;;;5170193;27;19963;-60
2021/12/10 04:14:55;;;;;;;;;;;;;;;;;;5169526;27;20294;-60
2021/12/10 04:17:22;;;;;;;;;;;;;;;;;;5132686;27;20347;-59
2021/12/10 04:19:50;;;;;;;;;;;;;;;;;;5130147;27;19963;-60
2021/12/10 04:22:16;;;;;;;;;;;;;;;;;;5148121;27;19920;-60
2021/12/10 04:24:42;;;;;;;;;;;;;;;;;;5148819;27;19927;-60
2021/12/10 04:27:08;;;;;;;;;;;;;;;;;;5129912;27;19923;-60
2021/12/10 04:29:34;;;;;;;;;;;;;;;;;;5148660;27;19920;-59
2021/12/10 04:32:00;;;;;;;;;;;;;;;;;;5165593;27;19919;-60
2021/12/10 04:34:26;;;;;;;;;;;;;;;;;;5131409;27;19930;-59
2021/12/10 04:36:52;;;;;;;;;;;;;;;;;;5147909;27;20405;-59
2021/12/10 04:39:18;;;;;;;;;;;;;;;;;;5148337;27;19923;-60
2021/12/10 04:41:44;;;;;;;;;;;;;;;;;;5148258;27;19919;-59
2021/12/10 04:44:10;;;;;;;;;;;;;;;;;;5163559;27;19983;-60
2021/12/10 04:46:36;;;;;;;;;;;;;;;;;;5168729;27;19982;-59
2021/12/10 04:49:02;;;;;;;;;;;;;;;;;;5168800;27;19925;-61
2021/12/10 04:51:28;;;;;;;;;;;;;;;;;;5168121;27;20022;-60
2021/12/10 04:53:54;;;;;;;;;;;;;;;;;;5169073;27;19919;-59
2021/12/10 04:56:20;;;;;;;;;;;;;;;;;;5155283;27;19955;-59
2021/12/10 04:58:46;;;;;;;;;;;;;;;;;;5167056;27;19929;-59
2021/12/10 05:01:12;;;;;;;;;;;;;;;;;;5155399;27;19923;-59
2021/12/10 05:03:38;;;;;;;;;;;;;;;;;;5129469;27;19923;-60
2021/12/10 05:06:04;;;;;;;;;;;;;;;;;;5128852;27;19983;-60
2021/12/10 05:08:30;;;;;;;;;;;;;;;;;;5147691;27;19919;-60
2021/12/10 05:10:56;;;;;;;;;;;;;;;;;;5147666;27;19919;-59
2021/12/10 05:13:22;;;;;;;;;;;;;;;;;;5147475;27;20282;-59
2021/12/10 05:15:55;;;;;;;;;;;;;;;;;;5163856;27;19982;-59
2021/12/10 05:18:21;;;;;;;;;;;;;;;;;;5168483;27;20309;-59
2021/12/10 05:20:48;;;;;;;;;;;;;;;;;;5149384;27;19919;-60
2021/12/10 05:23:14;;;;;;;;;;;;;;;;;;5149367;27;19919;-60
2021/12/10 05:25:41;;;;;;;;;;;;;;;;;;5168100;27;19972;-58
2021/12/10 05:28:08;;;;;;;;;;;;;;;;;;5168118;27;19919;-60
2021/12/10 05:30:34;;;;;;;;;;;;;;;;;;5150949;27;19927;-60
2021/12/10 05:33:01;;;;;;;;;;;;;;;;;;5147377;27;20027;-60
2021/12/10 05:35:27;;;;;;;;;;;;;;;;;;5146892;27;19919;-60
2021/12/10 05:37:53;;;;;;;;;;;;;;;;;;5146923;27;19915;-60
2021/12/10 05:40:19;;;;;;;;;;;;;;;;;;5147192;27;19919;-60
2021/12/10 05:42:45;;;;;;;;;;;;;;;;;;5147829;27;19993;-60
2021/12/10 05:45:11;;;;;;;;;;;;;;;;;;5147219;27;19923;-60
2021/12/10 05:47:37;;;;;;;;;;;;;;;;;;5147054;27;19926;-60
2021/12/10 05:50:03;;;;;;;;;;;;;;;;;;5146289;27;20414;-60
2021/12/10 05:52:29;;;;;;;;;;;;;;;;;;5146128;27;19930;-60
2021/12/10 05:54:55;;;;;;;;;;;;;;;;;;5146786;27;20225;-59
2021/12/10 05:57:21;;;;;;;;;;;;;;;;;;5146880;27;20005;-59
2021/12/10 05:59:47;;;;;;;;;;;;;;;;;;5155069;27;19923;-60
2021/12/10 06:02:13;;;;;;;;;;;;;;;;;;5167733;27;20256;-60
2021/12/10 06:04:39;;;;;;;;;;;;;;;;;;5167711;27;19919;-61
2021/12/10 06:07:05;;;;;;;;;;;;;;;;;;5166408;27;19970;-60
2021/12/10 06:09:31;;;;;;;;;;;;;;;;;;5155420;27;19946;-60
2021/12/10 06:11:57;;;;;;;;;;;;;;;;;;5149184;27;19927;-59
2021/12/10 06:14:23;;;;;;;;;;;;;;;;;;5159948;27;19934;-59
2021/12/10 06:16:52;;;;;;;;;;;;;;;;;;5146297;27;20194;-59
2021/12/10 06:19:18;;;;;;;;;;;;;;;;;;5146560;27;19919;-60
2021/12/10 06:21:44;;;;;;;;;;;;;;;;;;5145531;27;19927;-60
2021/12/10 06:24:10;;;;;;;;;;;;;;;;;;5146216;27;19919;-59
2021/12/10 06:26:36;;;;;;;;;;;;;;;;;;5146024;27;20344;-60
2021/12/10 06:29:02;;;;;;;;;;;;;;;;;;5151851;27;19944;-60
2021/12/10 06:31:29;;;;;;;;;;;;;;;;;;5152440;27;19938;-60
2021/12/10 06:33:55;;;;;;;;;;;;;;;;;;5146116;27;19919;-59
2021/12/10 06:36:21;;;;;;;;;;;;;;;;;;5145891;27;19927;-59
2021/12/10 06:38:47;;;;;;;;;;;;;;;;;;5161226;27;19926;-60
2021/12/10 06:41:14;;;;;;;;;;;;;;;;;;5161946;27;19919;-61
2021/12/10 06:43:40;;;;;;;;;;;;;;;;;;5166798;27;19926;-60
2021/12/10 06:46:06;;;;;;;;;;;;;;;;;;5163494;27;19919;-61
2021/12/10 06:48:32;;;;;;;;;;;;;;;;;;5138180;27;19919;-61
2021/12/10 06:50:58;;;;;;;;;;;;;;;;;;5147250;27;19931;-60
2021/12/10 06:53:24;;;;;;;;;;;;;;;;;;5131757;27;19919;-59
2021/12/10 06:55:50;;;;;;;;;;;;;;;;;;5158319;27;19926;-61
2021/12/10 06:58:16;;;;;;;;;;;;;;;;;;5162784;27;19919;-61
2021/12/10 07:00:43;;;;;;;;;;;;;;;;;;5161471;27;19929;-60
2021/12/10 07:03:09;;;;;;;;;;;;;;;;;;5131924;27;19919;-59
2021/12/10 07:05:35;;;;;;;;;;;;;;;;;;5144896;27;19919;-61
2021/12/10 07:08:01;;;;;;;;;;;;;;;;;;5146787;27;19919;-61
2021/12/10 07:10:27;;;;;;;;;;;;;;;;;;5134641;27;20002;-60
2021/12/10 07:12:53;;;;;;;;;;;;;;;;;;5146730;27;19926;-60
2021/12/10 07:15:19;;;;;;;;;;;;;;;;;;5160907;27;20377;-60
2021/12/10 07:17:45;;;;;;;;;;;;;;;;;;5152711;27;19930;-60
2021/12/10 07:20:11;;;;;;;;;;;;;;;;;;5150730;27;19927;-59
2021/12/10 07:22:38;;;;;;;;;;;;;;;;;;5155518;27;19993;-59
2021/12/10 07:25:04;;;;;;;;;;;;;;;;;;5161129;27;19919;-61
2021/12/10 07:27:30;;;;;;;;;;;;;;;;;;5166385;27;19929;-60
2021/12/10 07:29:56;;;;;;;;;;;;;;;;;;5168987;27;20397;-60
2021/12/10 07:32:22;;;;;;;;;;;;;;;;;;5162230;27;19923;-60
2021/12/10 07:34:48;;;;;;;;;;;;;;;;;;5161954;27;19923;-59
2021/12/10 07:37:14;;;;;;;;;;;;;;;;;;5169457;27;19926;-59
2021/12/10 07:39:40;;;;;;;;;;;;;;;;;;5132079;27;19926;-59
2021/12/10 07:42:07;;;;;;;;;;;;;;;;;;5140288;27;19926;-59
2021/12/10 07:44:33;;;;;;;;;;;;;;;;;;5151391;27;19987;-60
2021/12/10 07:46:59;;;;;;;;;;;;;;;;;;5138726;27;19963;-59
2021/12/10 07:49:29;;;;;;;;;;;;;;;;;;5130414;27;20255;-59
2021/12/10 07:51:55;;;;;;;;;;;;;;;;;;5135179;27;20386;-60
2021/12/10 07:54:21;;;;;;;;;;;;;;;;;;5128713;28;19941;-59
2021/12/10 07:56:47;;;;;;;;;;;;;;;;;;5133714;27;19941;-59
2021/12/10 07:59:13;;;;;;;;;;;;;;;;;;5149244;27;19920;-59
2021/12/10 08:01:39;;;;;;;;;;;;;;;;;;5137337;27;19920;-61
2021/12/10 08:04:06;;;;;;;;;;;;;;;;;;5128478;27;19920;-61
2021/12/10 08:06:32;;;;;;;;;;;;;;;;;;5136315;27;19920;-60
2021/12/10 08:08:58;;;;;;;;;;;;;;;;;;5146730;27;19919;-60
2021/12/10 08:11:24;;;;;;;;;;;;;;;;;;5135201;27;19928;-60
2021/12/10 08:13:50;;;;;;;;;;;;;;;;;;5133839;27;19927;-60
2021/12/10 08:16:16;;;;;;;;;;;;;;;;;;5132451;27;19927;-60
2021/12/10 08:18:42;;;;;;;;;;;;;;;;;;5137335;27;19926;-59
2021/12/10 08:21:08;;;;;;;;;;;;;;;;;;5136477;27;19924;-60
2021/12/10 08:23:34;;;;;;;;;;;;;;;;;;5139271;27;19935;-60
2021/12/10 08:26:00;;;;;;;;;;;;;;;;;;5133087;27;19926;-63
2021/12/10 08:28:27;;;;;;;;;;;;;;;;;;5133853;27;19924;-64
2021/12/10 08:33:57;;;;;;;;;;;;;;;;;;5133053;27;19949;-64
2021/12/10 08:36:23;;;;;;;;;;;;;;;;;;5131828;27;19928;-65
2021/12/10 08:38:49;;;;;;;;;;;;;;;;;;5138325;27;19926;-62
2021/12/10 08:41:15;;;;;;;;;;;;;;;;;;5130162;27;19927;-59
2021/12/10 08:43:41;;;;;;;;;;;;;;;;;;5131975;27;19926;-59
2021/12/10 08:46:07;;;;;;;;;;;;;;;;;;5131849;27;19962;-59
2021/12/10 08:48:33;;;;;;;;;;;;;;;;;;5151165;27;20014;-60
2021/12/10 08:50:59;;;;;;;;;;;;;;;;;;5152803;27;20038;-59
2021/12/10 08:53:25;;;;;;;;;;;;;;;;;;5135512;27;20287;-59
2021/12/10 08:55:51;;;;;;;;;;;;;;;;;;5157064;27;19930;-61
2021/12/10 08:58:17;;;;;;;;;;;;;;;;;;5162963;27;19919;-60
2021/12/10 09:00:43;;;;;;;;;;;;;;;;;;5160293;27;19949;-59
2021/12/10 09:03:09;;;;;;;;;;;;;;;;;;5153042;27;19972;-60
2021/12/10 09:05:35;;;;;;;;;;;;;;;;;;5151013;27;19979;-60
2021/12/10 09:08:01;;;;;;;;;;;;;;;;;;5153848;27;19963;-59
2021/12/10 09:10:27;;;;;;;;;;;;;;;;;;5137523;27;20326;-59
2021/12/10 09:12:53;;;;;;;;;;;;;;;;;;5149996;27;19931;-59
2021/12/10 09:15:22;;;;;;;;;;;;;;;;;;5152681;27;19919;-59
2021/12/10 09:17:48;;;;;;;;;;;;;;;;;;5153550;27;19923;-58
2021/12/10 09:20:14;;;;;;;;;;;;;;;;;;5149745;27;19923;-59
2021/12/10 09:22:40;;;;;;;;;;;;;;;;;;5165655;27;19930;-59
2021/12/10 09:25:07;;;;;;;;;;;;;;;;;;5156545;27;19919;-59
2021/12/10 09:27:33;;;;;;;;;;;;;;;;;;5150680;27;20068;-59
2021/12/10 09:29:59;;;;;;;;;;;;;;;;;;5151185;27;19996;-58
2021/12/10 09:32:26;;;;;;;;;;;;;;;;;;5163298;27;19922;-60
2021/12/10 09:34:52;;;;;;;;;;;;;;;;;;5155670;27;19927;-58
2021/12/10 09:37:18;;;;;;;;;;;;;;;;;;5161504;27;19919;-60
2021/12/10 09:39:46;;;;;;;;;;;;;;;;;;5162065;27;19919;-59
2021/12/10 09:42:12;;;;;;;;;;;;;;;;;;5154852;27;20015;-59
2021/12/10 09:44:38;;;;;;;;;;;;;;;;;;5164184;27;20030;-59
2021/12/10 09:47:04;;;;;;;;;;;;;;;;;;5149694;27;19919;-58
2021/12/10 09:49:30;;;;;;;;;;;;;;;;;;5146725;27;19920;-58
2021/12/10 09:51:56;;;;;;;;;;;;;;;;;;5145391;27;19919;-59
2021/12/10 09:54:22;;;;;;;;;;;;;;;;;;5147228;27;20014;-59
2021/12/10 09:56:48;;;;;;;;;;;;;;;;;;5146018;27;19919;-59
2021/12/10 09:59:14;;;;;;;;;;;;;;;;;;5148090;27;19976;-59
2021/12/10 10:01:45;;;;;;;;;;;;;;;;;;5147730;27;20002;-58
2021/12/10 10:04:11;;;;;;;;;;;;;;;;;;5156055;27;19949;-59
2021/12/10 10:06:37;;;;;;;;;;;;;;;;;;5162770;27;19945;-59
2021/12/10 10:09:03;;;;;;;;;;;;;;;;;;5153699;27;19919;-59
2021/12/10 10:11:29;;;;;;;;;;;;;;;;;;5145850;27;19933;-59
2021/12/10 10:13:56;;;;;;;;;;;;;;;;;;5149333;27;19918;-58
2021/12/10 10:16:22;;;;;;;;;;;;;;;;;;5149967;27;19919;-59
2021/12/10 10:18:48;;;;;;;;;;;;;;;;;;5152721;27;19948;-59
2021/12/10 10:21:14;;;;;;;;;;;;;;;;;;5156425;27;19927;-59
2021/12/10 10:23:42;;;;;;;;;;;;;;;;;;5149961;27;19927;-59
2021/12/10 10:26:08;;;;;;;;;;;;;;;;;;5150447;27;19930;-59
2021/12/10 10:28:34;;;;;;;;;;;;;;;;;;5148787;27;19927;-60
2021/12/10 10:31:02;;;;;;;;;;;;;;;;;;5143416;27;19919;-58
2021/12/10 10:33:28;;;;;;;;;;;;;;;;;;5131185;27;20013;-57
2021/12/10 10:35:54;;;;;;;;;;;;;;;;;;5142870;27;19955;-66
2021/12/10 10:38:20;;;;;;;;;;;;;;;;;;5124594;27;19927;-66
2021/12/10 10:40:46;;;;;;;;;;;;;;;;;;5145561;27;19923;-69
2021/12/10 10:43:12;;;;;;;;;;;;;;;;;;5149553;27;19985;-69
2021/12/10 10:45:39;;;;;;;;;;;;;;;;;;5136584;27;20401;-69
2021/12/10 10:48:05;;;;;;;;;;;;;;;;;;5148041;27;19919;-69
2021/12/10 10:50:31;;;;;;;;;;;;;;;;;;5150323;27;19919;-68
2021/12/10 10:52:57;;;;;;;;;;;;;;;;;;5148741;27;19923;-64
2021/12/10 10:55:23;;;;;;;;;;;;;;;;;;5149519;27;19929;-66
2021/12/10 10:57:49;;;;;;;;;;;;;;;;;;5149570;27;20338;-63
2021/12/10 11:00:15;;;;;;;;;;;;;;;;;;5151821;27;21051;-61
2021/12/10 11:02:48;;;;;;;;;;;;;;;;;;5150429;27;19950;-62
2021/12/10 11:05:14;;;;;;;;;;;;;;;;;;5136236;27;20393;-62
2021/12/10 11:07:40;;;;;;;;;;;;;;;;;;5151219;27;19919;-64
2021/12/10 11:10:06;;;;;;;;;;;;;;;;;;5134662;27;19927;-64
2021/12/10 11:12:32;;;;;;;;;;;;;;;;;;5154107;27;19927;-65
2021/12/10 11:14:58;;;;;;;;;;;;;;;;;;5154275;27;19919;-65
2021/12/10 11:17:24;;;;;;;;;;;;;;;;;;5155508;27;19919;-65
2021/12/10 11:19:50;;;;;;;;;;;;;;;;;;5164255;27;20006;-64
2021/12/10 11:22:16;;;;;;;;;;;;;;;;;;5132114;27;20060;-63
2021/12/10 11:24:46;;;;;;;;;;;;;;;;;;5137111;27;19972;-64
2021/12/10 11:27:13;;;;;;;;;;;;;;;;;;5153315;27;19922;-66
2021/12/10 11:29:39;;;;;;;;;;;;;;;;;;5137039;27;19919;-65
2021/12/10 11:32:05;;;;;;;;;;;;;;;;;;5137122;27;19930;-66
2021/12/10 11:34:31;;;;;;;;;;;;;;;;;;5153405;27;19927;-64
2021/12/10 11:36:57;;;;;;;;;;;;;;;;;;5150213;27;19927;-64
2021/12/10 11:39:23;;;;;;;;;;;;;;;;;;5153670;27;19931;-60
2021/12/10 11:41:51;;;;;;;;;;;;;;;;;;5153400;27;19920;-60
2021/12/10 11:44:22;;;;;;;;;;;;;;;;;;5167405;27;19926;-60
2021/12/10 11:47:02;;;;;;;;;;;;;;;;;;5153541;27;19971;-63
2021/12/10 11:49:28;;;;;;;;;;;;;;;;;;5162546;27;19920;-64
2021/12/10 11:51:54;;;;;;;;;;;;;;;;;;5150084;27;19967;-63
2021/12/10 11:54:20;;;;;;;;;;;;;;;;;;5159763;27;19958;-63
2021/12/10 11:56:46;;;;;;;;;;;;;;;;;;5151701;27;19927;-62
2021/12/10 11:59:12;;;;;;;;;;;;;;;;;;5150954;27;20353;-65
2021/12/10 12:01:38;;;;;;;;;;;;;;;;;;5159407;27;20295;-65
2021/12/10 12:04:04;;;;;;;;;;;;;;;;;;5162934;27;19922;-60
2021/12/10 12:06:30;;;;;;;;;;;;;;;;;;5161500;27;19926;-70
2021/12/10 12:08:56;;;;;;;;;;;;;;;;;;5156569;27;19987;-63
2021/12/10 12:11:22;;;;;;;;;;;;;;;;;;5153965;27;20010;-63
2021/12/10 12:13:57;;;;;;;;;;;;;;;;;;5162669;27;20063;-65
2021/12/10 12:16:26;;;;;;;;;;;;;;;;;;5158818;27;19944;-65
2021/12/10 12:18:52;;;;;;;;;;;;;;;;;;5156917;27;19985;-63
2021/12/10 12:26:38;;;;;;;;;;;;;;;;;;5136753;27;19929;-63
2021/12/10 12:29:04;;;;;;;;;;;;;;;;;;5153325;27;19966;-62
2021/12/10 12:31:30;;;;;;;;;;;;;;;;;;5160543;27;19922;-64
2021/12/10 12:33:59;;;;;;;;;;;;;;;;;;5155048;27;20434;-63
2021/12/10 12:36:25;;;;;;;;;;;;;;;;;;5167247;27;19939;-62
2021/12/10 12:38:52;;;;;;;;;;;;;;;;;;5142351;27;19920;-61
2021/12/10 12:41:18;;;;;;;;;;;;;;;;;;5155286;27;19966;-62
2021/12/10 12:43:44;;;;;;;;;;;;;;;;;;5164977;27;19940;-64
2021/12/10 12:46:10;;;;;;;;;;;;;;;;;;5154483;27;19923;-63
2021/12/10 12:48:37;;;;;;;;;;;;;;;;;;5166159;27;19930;-65
2021/12/10 12:51:05;;;;;;;;;;;;;;;;;;5159726;27;19923;-63
2021/12/10 12:53:33;;;;;;;;;;;;;;;;;;5147662;27;19919;-59
2021/12/10 12:55:59;;;;;;;;;;;;;;;;;;5161025;27;19929;-60
2021/12/10 12:58:25;;;;;;;;;;;;;;;;;;5150831;27;20423;-60
2021/12/10 13:00:51;;;;;;;;;;;;;;;;;;5151240;27;19950;-60
2021/12/10 13:03:17;;;;;;;;;;;;;;;;;;5166224;27;19945;-61
2021/12/10 13:05:43;;;;;;;;;;;;;;;;;;5150664;27;19930;-68
2021/12/10 13:08:09;;;;;;;;;;;;;;;;;;5157342;27;19919;-65
2021/12/10 13:10:38;;;;;;;;;;;;;;;;;;5160978;27;19925;-65
2021/12/10 13:13:12;;;;;;;;;;;;;;;;;;5158716;27;19925;-63
2021/12/10 13:15:39;;;;;;;;;;;;;;;;;;5164470;27;19923;-70
2021/12/10 13:18:06;;;;;;;;;;;;;;;;;;5154588;27;19915;-69
2021/12/10 13:20:32;;;;;;;;;;;;;;;;;;5148973;27;19920;-69
2021/12/10 13:22:58;;;;;;;;;;;;;;;;;;5151112;27;19919;-65
2021/12/10 13:25:24;;;;;;;;;;;;;;;;;;5163332;27;19926;-64
2021/12/10 13:27:50;;;;;;;;;;;;;;;;;;5160252;27;19919;-68
2021/12/10 13:30:16;;;;;;;;;;;;;;;;;;5154872;27;19919;-65
2021/12/10 13:32:42;;;;;;;;;;;;;;;;;;5160638;27;19919;-61
2021/12/10 13:35:08;;;;;;;;;;;;;;;;;;5159790;27;20408;-61
2021/12/10 13:37:34;;;;;;;;;;;;;;;;;;5156592;27;19926;-64
2021/12/10 13:40:00;;;;;;;;;;;;;;;;;;5159041;27;19919;-70
2021/12/10 13:42:26;;;;;;;;;;;;;;;;;;5167733;27;19918;-69
2021/12/10 13:44:55;;;;;;;;;;;;;;;;;;5155973;27;19924;-68
2021/12/10 13:47:21;;;;;;;;;;;;;;;;;;5150454;27;19919;-68
2021/12/10 13:49:48;;;;;;;;;;;;;;;;;;5148658;27;19941;-67
2021/12/10 13:52:14;;;;;;;;;;;;;;;;;;5151423;27;19929;-60
2021/12/10 13:54:40;;;;;;;;;;;;;;;;;;5155021;27;19919;-61
2021/12/10 13:57:06;;;;;;;;;;;;;;;;;;5147294;27;19926;-60
2021/12/10 13:59:32;;;;;;;;;;;;;;;;;;5145877;27;19927;-61
2021/12/10 14:01:58;;;;;;;;;;;;;;;;;;5150818;27;19941;-63
2021/12/10 14:04:24;;;;;;;;;;;;;;;;;;5148992;27;19919;-63
2021/12/10 14:06:50;;;;;;;;;;;;;;;;;;5149541;27;19930;-63
2021/12/10 14:09:16;;;;;;;;;;;;;;;;;;5150212;27;19919;-62
2021/12/10 14:11:55;;;;;;;;;;;;;;;;;;5111667;27;19986;-62
2021/12/10 14:14:21;;;;;;;;;;;;;;;;;;5156052;27;19926;-62
2021/12/10 14:16:47;;;;;;;;;;;;;;;;;;5162424;27;19922;-61
2021/12/10 14:19:13;;;;;;;;;;;;;;;;;;5140374;27;19960;-63
2021/12/10 14:21:39;;;;;;;;;;;;;;;;;;5156414;27;19918;-66
2021/12/10 14:24:05;;;;;;;;;;;;;;;;;;5151329;27;19920;-63
2021/12/10 14:26:33;;;;;;;;;;;;;;;;;;5152917;27;19927;-63
2021/12/10 14:29:02;;;;;;;;;;;;;;;;;;5159485;27;19919;-62
2021/12/10 14:31:28;;;;;;;;;;;;;;;;;;5156299;27;19926;-63
2021/12/10 14:33:54;;;;;;;;;;;;;;;;;;5143819;27;19922;-62
2021/12/10 14:36:20;;;;;;;;;;;;;;;;;;5157140;27;19919;-64
2021/12/10 14:38:47;;;;;;;;;;;;;;;;;;5156493;27;19919;-64
2021/12/10 14:41:13;;;;;;;;;;;;;;;;;;5161371;27;19974;-64
2021/12/10 14:43:39;;;;;;;;;;;;;;;;;;5156844;27;19927;-62
2021/12/10 14:46:05;;;;;;;;;;;;;;;;;;5153409;27;19923;-62
2021/12/10 14:48:32;;;;;;;;;;;;;;;;;;5155581;27;19983;-60
2021/12/10 14:50:58;;;;;;;;;;;;;;;;;;5156527;27;19919;-61
2021/12/10 14:53:24;;;;;;;;;;;;;;;;;;5151950;27;20393;-61
2021/12/10 14:55:50;;;;;;;;;;;;;;;;;;5152861;27;19919;-61
2021/12/10 14:58:16;;;;;;;;;;;;;;;;;;5164611;27;19919;-62
2021/12/10 15:00:42;;;;;;;;;;;;;;;;;;5158769;27;19919;-61
2021/12/10 15:03:08;;;;;;;;;;;;;;;;;;5140687;27;19926;-61
2021/12/10 15:05:35;;;;;;;;;;;;;;;;;;5148270;27;19961;-60
2021/12/10 15:08:00;;;;;;;;;;;;;;;;;;5150975;27;19926;-60
2021/12/10 15:10:27;;;;;;;;;;;;;;;;;;5156307;27;19951;-61
2021/12/10 15:12:53;;;;;;;;;;;;;;;;;;5164742;27;19969;-61
2021/12/10 15:15:19;;;;;;;;;;;;;;;;;;5142003;27;19923;-61
2021/12/10 15:17:45;;;;;;;;;;;;;;;;;;5152134;27;19926;-61
2021/12/10 15:20:11;;;;;;;;;;;;;;;;;;5154720;27;19919;-61
2021/12/10 15:22:37;;;;;;;;;;;;;;;;;;5153141;27;19926;-64
2021/12/10 15:25:03;;;;;;;;;;;;;;;;;;5132653;27;19923;-68
2021/12/10 15:27:30;;;;;;;;;;;;;;;;;;5133860;27;19919;-67
2021/12/10 15:29:56;;;;;;;;;;;;;;;;;;5154115;27;19919;-68
2021/12/10 15:32:22;;;;;;;;;;;;;;;;;;5148744;27;19923;-67
2021/12/10 15:34:48;;;;;;;;;;;;;;;;;;5153077;27;19923;-68
2021/12/10 15:37:14;;;;;;;;;;;;;;;;;;5152231;27;19919;-68
2021/12/10 15:39:40;;;;;;;;;;;;;;;;;;5129472;27;19922;-68
2021/12/10 15:42:06;;;;;;;;;;;;;;;;;;5130178;27;19920;-68
2021/12/10 15:44:38;;;;;;;;;;;;;;;;;;5153303;27;20009;-67
2021/12/10 15:47:04;;;;;;;;;;;;;;;;;;5149101;27;19923;-68
2021/12/10 15:49:30;;;;;;;;;;;;;;;;;;5161135;27;20289;-67
2021/12/10 15:51:56;;;;;;;;;;;;;;;;;;5158539;27;19915;-67
2021/12/10 15:54:23;;;;;;;;;;;;;;;;;;5160652;27;19923;-67
2021/12/10 15:56:49;;;;;;;;;;;;;;;;;;5157140;27;20009;-65
2021/12/10 15:59:15;;;;;;;;;;;;;;;;;;5154468;27;19915;-63
2021/12/10 16:01:41;;;;;;;;;;;;;;;;;;5155404;27;19920;-65
2021/12/10 16:04:07;;;;;;;;;;;;;;;;;;5155064;27;19930;-64
2021/12/10 16:06:33;;;;;;;;;;;;;;;;;;5154484;27;19923;-65
2021/12/10 16:09:05;;;;;;;;;;;;;;;;;;5160234;27;19940;-66
2021/12/10 16:11:31;;;;;;;;;;;;;;;;;;5141327;27;19919;-62
2021/12/10 16:13:57;;;;;;;;;;;;;;;;;;5161190;27;20006;-64
2021/12/10 16:16:23;;;;;;;;;;;;;;;;;;5138709;27;19923;-63
2021/12/10 16:18:51;;;;;;;;;;;;;;;;;;5156970;27;19929;-63
2021/12/10 16:21:17;;;;;;;;;;;;;;;;;;5137567;27;19941;-64
2021/12/10 16:23:43;;;;;;;;;;;;;;;;;;5132964;27;19923;-63
2021/12/10 16:26:10;;;;;;;;;;;;;;;;;;5160640;27;19997;-64
2021/12/10 16:28:36;;;;;;;;;;;;;;;;;;5148590;27;19927;-65
2021/12/10 16:31:03;;;;;;;;;;;;;;;;;;5160876;27;20368;-64
2021/12/10 16:33:33;;;;;;;;;;;;;;;;;;5152064;27;19974;-64
2021/12/10 16:35:59;;;;;;;;;;;;;;;;;;5159697;27;19919;-65
2021/12/10 16:38:25;;;;;;;;;;;;;;;;;;5139163;27;19926;-65
2021/12/10 16:40:51;;;;;;;;;;;;;;;;;;5153113;27;19927;-63
2021/12/10 16:43:17;;;;;;;;;;;;;;;;;;5150275;27;19919;-62
2021/12/10 16:45:43;;;;;;;;;;;;;;;;;;5133944;27;19938;-65
2021/12/10 16:48:09;;;;;;;;;;;;;;;;;;5151193;27;19970;-61
2021/12/10 16:50:35;;;;;;;;;;;;;;;;;;5149645;27;20381;-61
2021/12/10 16:53:01;;;;;;;;;;;;;;;;;;5158128;27;19953;-63
2021/12/10 16:55:27;;;;;;;;;;;;;;;;;;5160913;27;19926;-64